createdAt,value
2017-01-20T00:01:03.427Z,0
2017-01-20T00:02:12.116Z,0
2017-01-20T00:03:20.805Z,0
2017-01-20T00:04:29.502Z,0
2017-01-20T00:05:38.249Z,0
2017-01-20T00:06:46.974Z,0
2017-01-20T00:07:55.672Z,0
2017-01-20T00:09:04.359Z,0
2017-01-20T00:10:13.051Z,0
2017-01-20T00:11:21.792Z,0
2017-01-20T00:12:30.509Z,0
2017-01-20T00:13:39.198Z,0
2017-01-20T00:14:47.896Z,0
2017-01-20T00:15:56.592Z,0
2017-01-20T00:17:05.335Z,0
2017-01-20T00:18:14.026Z,0
2017-01-20T00:19:22.719Z,0
2017-01-20T00:20:31.416Z,0
2017-01-20T00:21:40.105Z,0
2017-01-20T00:22:48.843Z,0
2017-01-20T00:23:57.564Z,0
2017-01-20T00:25:06.252Z,0
2017-01-20T00:26:14.946Z,0
2017-01-20T00:27:23.640Z,0
2017-01-20T00:28:32.385Z,0
2017-01-20T00:29:41.072Z,0
2017-01-20T00:30:49.771Z,0
2017-01-20T00:31:58.465Z,0
2017-01-20T00:33:07.159Z,0
2017-01-20T00:34:15.953Z,0
2017-01-20T00:35:24.642Z,0
2017-01-20T00:36:33.340Z,0
2017-01-20T00:37:42.036Z,0
2017-01-20T00:38:50.726Z,0
2017-01-20T00:39:59.473Z,0
2017-01-20T00:41:08.169Z,0
2017-01-20T00:42:16.863Z,0
2017-01-20T00:43:25.556Z,0
2017-01-20T00:44:34.249Z,0
2017-01-20T00:45:42.995Z,0
2017-01-20T00:46:51.686Z,0
2017-01-20T00:48:00.375Z,0
2017-01-20T00:49:09.459Z,0
2017-01-20T00:50:18.148Z,0
2017-01-20T00:51:26.891Z,0
2017-01-20T00:52:35.578Z,0
2017-01-20T00:53:44.273Z,0
2017-01-20T00:54:52.966Z,0
2017-01-20T00:56:01.660Z,0
2017-01-20T00:57:10.401Z,0
2017-01-20T00:58:19.097Z,0
2017-01-20T00:59:27.783Z,0
2017-01-20T01:00:36.474Z,0
2017-01-20T01:01:45.164Z,0
2017-01-20T01:02:53.908Z,0
2017-01-20T01:04:02.623Z,0
2017-01-20T01:05:11.316Z,0
2017-01-20T01:06:20.005Z,0
2017-01-20T01:07:28.694Z,0
2017-01-20T01:08:37.442Z,0
2017-01-20T01:09:46.142Z,0
2017-01-20T01:10:54.830Z,0
2017-01-20T01:12:03.526Z,0
2017-01-20T01:13:12.220Z,0
2017-01-20T01:14:21.262Z,0
2017-01-20T01:15:29.954Z,0
2017-01-20T01:16:38.652Z,0
2017-01-20T01:17:47.344Z,0
2017-01-20T01:18:56.037Z,0
2017-01-20T01:20:04.779Z,0
2017-01-20T01:21:13.478Z,0
2017-01-20T01:22:22.169Z,0
2017-01-20T01:23:30.861Z,0
2017-01-20T01:24:39.554Z,0
2017-01-20T01:25:48.292Z,0
2017-01-20T01:26:56.982Z,0
2017-01-20T01:28:05.678Z,0
2017-01-20T01:29:14.373Z,0
2017-01-20T01:30:23.072Z,0
2017-01-20T01:31:32.232Z,0
2017-01-20T01:32:40.927Z,0
2017-01-20T01:33:49.615Z,0
2017-01-20T01:34:58.307Z,0
2017-01-20T01:36:06.997Z,0
2017-01-20T01:37:15.735Z,0
2017-01-20T01:38:24.426Z,0
2017-01-20T01:39:33.117Z,0
2017-01-20T01:40:41.806Z,0
2017-01-20T01:41:50.503Z,0
2017-01-20T01:42:59.243Z,0
2017-01-20T01:44:07.933Z,0
2017-01-20T01:45:16.627Z,0
2017-01-20T01:46:25.315Z,0
2017-01-20T01:47:34.010Z,0
2017-01-20T01:48:42.752Z,0
2017-01-20T01:49:51.444Z,0
2017-01-20T01:51:00.136Z,0
2017-01-20T01:52:08.834Z,0
2017-01-20T01:53:17.529Z,0
2017-01-20T01:54:26.271Z,0
2017-01-20T01:55:34.963Z,0
2017-01-20T01:56:43.652Z,0
2017-01-20T01:57:52.341Z,0
2017-01-20T01:59:01.033Z,0
2017-01-20T02:00:09.777Z,0
2017-01-20T02:01:18.470Z,0
2017-01-20T02:02:27.165Z,0
2017-01-20T02:03:35.859Z,0
2017-01-20T02:04:44.548Z,0
2017-01-20T02:05:53.287Z,0
2017-01-20T02:07:01.981Z,0
2017-01-20T02:08:10.680Z,0
2017-01-20T02:09:19.371Z,0
2017-01-20T02:10:28.059Z,0
2017-01-20T02:11:36.805Z,0
2017-01-20T02:12:45.500Z,0
2017-01-20T02:13:54.192Z,0
2017-01-20T02:15:02.884Z,0
2017-01-20T02:16:11.574Z,0
2017-01-20T02:17:20.318Z,0
2017-01-20T02:18:29.014Z,0
2017-01-20T02:19:37.718Z,0
2017-01-20T02:20:46.413Z,0
2017-01-20T02:21:55.105Z,0
2017-01-20T02:23:03.844Z,0
2017-01-20T02:24:12.537Z,0
2017-01-20T02:25:21.229Z,0
2017-01-20T02:26:29.928Z,0
2017-01-20T02:27:38.619Z,0
2017-01-20T02:28:47.409Z,0
2017-01-20T02:29:56.106Z,0
2017-01-20T02:31:04.839Z,0
2017-01-20T02:32:13.533Z,0
2017-01-20T02:33:22.243Z,0
2017-01-20T02:34:30.997Z,0
2017-01-20T02:35:39.723Z,0
2017-01-20T02:36:48.417Z,0
2017-01-20T02:37:57.109Z,0
2017-01-20T02:39:05.801Z,0
2017-01-20T02:40:14.543Z,0
2017-01-20T02:41:23.242Z,0
2017-01-20T02:42:31.939Z,0
2017-01-20T02:43:40.635Z,0
2017-01-20T02:44:49.325Z,0
2017-01-20T02:45:58.069Z,0
2017-01-20T02:47:06.762Z,0
2017-01-20T02:48:15.850Z,0
2017-01-20T02:49:24.540Z,0
2017-01-20T02:50:33.232Z,0
2017-01-20T02:51:41.979Z,0
2017-01-20T02:52:50.671Z,0
2017-01-20T02:53:59.368Z,0
2017-01-20T02:55:08.061Z,0
2017-01-20T02:56:16.752Z,0
2017-01-20T02:57:25.487Z,0
2017-01-20T02:58:34.181Z,0
2017-01-20T02:59:42.877Z,0
2017-01-20T03:00:51.569Z,0
2017-01-20T03:02:00.264Z,0
2017-01-20T03:03:09.033Z,0
2017-01-20T03:04:17.723Z,0
2017-01-20T03:05:26.413Z,0
2017-01-20T03:06:35.107Z,0
2017-01-20T03:07:43.797Z,0
2017-01-20T03:08:52.543Z,0
2017-01-20T03:10:01.232Z,0
2017-01-20T03:11:09.928Z,0
2017-01-20T03:12:18.622Z,0
2017-01-20T03:13:27.319Z,0
2017-01-20T03:14:36.089Z,0
2017-01-20T03:15:44.780Z,0
2017-01-20T03:16:53.470Z,0
2017-01-20T03:18:02.162Z,0
2017-01-20T03:19:10.851Z,0
2017-01-20T03:20:19.546Z,0
2017-01-20T03:21:28.237Z,0
2017-01-20T03:22:36.929Z,0
2017-01-20T03:23:45.619Z,0
2017-01-20T03:24:54.316Z,0
2017-01-20T03:26:03.008Z,0
2017-01-20T03:27:11.703Z,0
2017-01-20T03:28:20.393Z,0
2017-01-20T03:29:29.085Z,0
2017-01-20T03:30:37.775Z,0
2017-01-20T03:31:46.473Z,0
2017-01-20T03:32:55.166Z,0
2017-01-20T03:34:03.858Z,0
2017-01-20T03:35:12.575Z,0
2017-01-20T03:36:21.269Z,0
2017-01-20T03:37:29.969Z,0
2017-01-20T03:38:38.660Z,0
2017-01-20T03:39:47.368Z,0
2017-01-20T03:40:56.067Z,0
2017-01-20T03:42:04.761Z,0
2017-01-20T03:43:13.452Z,0
2017-01-20T03:44:22.144Z,0
2017-01-20T03:45:30.839Z,0
2017-01-20T03:46:39.532Z,0
2017-01-20T03:47:48.222Z,0
2017-01-20T03:48:56.913Z,0
2017-01-20T03:50:05.608Z,0
2017-01-20T03:51:14.301Z,0
2017-01-20T03:52:22.995Z,0
2017-01-20T03:53:31.690Z,0
2017-01-20T03:54:40.379Z,0
2017-01-20T03:55:49.079Z,0
2017-01-20T03:56:57.777Z,0
2017-01-20T03:58:06.492Z,0
2017-01-20T03:59:15.183Z,0
2017-01-20T04:00:23.882Z,0
2017-01-20T04:01:32.581Z,0
2017-01-20T04:02:41.275Z,0
2017-01-20T04:03:49.978Z,0
2017-01-20T04:04:58.673Z,0
2017-01-20T04:06:07.386Z,0
2017-01-20T04:07:16.078Z,0
2017-01-20T04:08:24.771Z,0
2017-01-20T04:09:33.470Z,0
2017-01-20T04:10:42.596Z,0
2017-01-20T04:11:51.291Z,0
2017-01-20T04:12:59.980Z,0
2017-01-20T04:14:08.678Z,0
2017-01-20T04:15:17.371Z,0
2017-01-20T04:16:26.057Z,0
2017-01-20T04:17:34.754Z,0
2017-01-20T04:18:43.444Z,0
2017-01-20T04:19:52.157Z,0
2017-01-20T04:21:00.876Z,0
2017-01-20T04:22:09.572Z,0
2017-01-20T04:23:18.266Z,0
2017-01-20T04:24:26.959Z,0
2017-01-20T04:25:35.651Z,0
2017-01-20T04:26:44.341Z,0
2017-01-20T04:27:53.034Z,0
2017-01-20T04:29:02.130Z,0
2017-01-20T04:30:10.825Z,0
2017-01-20T04:31:19.521Z,0
2017-01-20T04:32:28.213Z,0
2017-01-20T04:33:36.930Z,0
2017-01-20T04:34:45.623Z,0
2017-01-20T04:35:54.313Z,0
2017-01-20T04:37:03.004Z,0
2017-01-20T04:38:11.695Z,0
2017-01-20T04:39:20.411Z,0
2017-01-20T04:40:29.103Z,0
2017-01-20T04:41:37.789Z,0
2017-01-20T04:42:46.877Z,0
2017-01-20T04:43:55.568Z,0
2017-01-20T04:45:04.260Z,0
2017-01-20T04:46:12.955Z,0
2017-01-20T04:47:21.651Z,0
2017-01-20T04:48:30.338Z,0
2017-01-20T04:49:39.026Z,0
2017-01-20T04:50:47.725Z,0
2017-01-20T04:51:56.418Z,0
2017-01-20T04:53:05.116Z,0
2017-01-20T04:54:13.807Z,0
2017-01-20T04:55:22.504Z,0
2017-01-20T04:56:31.199Z,0
2017-01-20T04:57:39.887Z,0
2017-01-20T04:58:48.579Z,0
2017-01-20T04:59:57.272Z,0
2017-01-20T05:01:05.966Z,0
2017-01-20T05:02:14.657Z,0
2017-01-20T05:03:23.357Z,0
2017-01-20T05:04:32.047Z,0
2017-01-20T05:05:40.735Z,0
2017-01-20T05:06:49.446Z,0
2017-01-20T05:07:58.140Z,0
2017-01-20T05:09:06.865Z,0
2017-01-20T05:10:15.554Z,0
2017-01-20T05:11:24.251Z,0
2017-01-20T05:12:32.941Z,0
2017-01-20T05:13:41.635Z,0
2017-01-20T05:14:50.331Z,0
2017-01-20T05:15:59.051Z,0
2017-01-20T05:17:07.743Z,0
2017-01-20T05:18:16.433Z,0
2017-01-20T05:19:25.122Z,0
2017-01-20T05:20:33.821Z,0
2017-01-20T05:21:42.518Z,0
2017-01-20T05:22:51.210Z,0
2017-01-20T05:23:59.901Z,0
2017-01-20T05:25:08.598Z,0
2017-01-20T05:26:17.291Z,0
2017-01-20T05:27:25.988Z,0
2017-01-20T05:28:34.685Z,0
2017-01-20T05:29:43.373Z,0
2017-01-20T05:30:52.090Z,0
2017-01-20T05:32:00.777Z,0
2017-01-20T05:33:09.481Z,0
2017-01-20T05:34:18.176Z,0
2017-01-20T05:35:26.872Z,0
2017-01-20T05:36:35.568Z,0
2017-01-20T05:37:44.260Z,0
2017-01-20T05:38:52.960Z,0
2017-01-20T05:40:01.652Z,0
2017-01-20T05:41:10.344Z,0
2017-01-20T05:42:19.041Z,0
2017-01-20T05:43:27.737Z,0
2017-01-20T05:44:36.428Z,0
2017-01-20T05:45:45.123Z,0
2017-01-20T05:46:54.214Z,0
2017-01-20T05:48:02.906Z,0
2017-01-20T05:49:11.603Z,0
2017-01-20T05:50:20.289Z,0
2017-01-20T05:51:28.980Z,0
2017-01-20T05:52:37.674Z,0
2017-01-20T05:53:46.362Z,0
2017-01-20T05:54:55.056Z,0
2017-01-20T05:56:04.148Z,0
2017-01-20T05:57:12.840Z,0
2017-01-20T05:58:21.540Z,0
2017-01-20T05:59:30.238Z,0
2017-01-20T06:00:38.924Z,0
2017-01-20T06:01:47.641Z,0
2017-01-20T06:02:56.334Z,0
2017-01-20T06:04:05.030Z,0
2017-01-20T06:05:13.720Z,0
2017-01-20T06:06:22.411Z,0
2017-01-20T06:07:31.101Z,0
2017-01-20T06:08:39.788Z,0
2017-01-20T06:09:48.482Z,0
2017-01-20T06:10:57.174Z,0
2017-01-20T06:12:05.863Z,0
2017-01-20T06:13:14.552Z,0
2017-01-20T06:14:23.249Z,0
2017-01-20T06:15:31.935Z,0
2017-01-20T06:16:41.027Z,0
2017-01-20T06:17:49.720Z,0
2017-01-20T06:18:58.415Z,0
2017-01-20T06:20:07.110Z,0
2017-01-20T06:21:15.804Z,0
2017-01-20T06:22:24.525Z,0
2017-01-20T06:23:33.221Z,0
2017-01-20T06:24:41.922Z,0
2017-01-20T06:25:51.015Z,0
2017-01-20T06:26:59.708Z,0
2017-01-20T06:28:08.403Z,0
2017-01-20T06:29:17.100Z,0
2017-01-20T06:30:25.815Z,0
2017-01-20T06:31:34.912Z,0
2017-01-20T06:32:43.605Z,0
2017-01-20T06:33:52.299Z,0
2017-01-20T06:35:00.986Z,0
2017-01-20T06:36:09.679Z,0
2017-01-20T06:37:18.371Z,0
2017-01-20T06:38:27.069Z,0
2017-01-20T06:39:36.160Z,0
2017-01-20T06:40:44.855Z,0
2017-01-20T06:41:53.544Z,0
2017-01-20T06:43:02.238Z,0
2017-01-20T06:44:10.929Z,0
2017-01-20T06:45:19.625Z,0
2017-01-20T06:46:28.324Z,0
2017-01-20T06:47:37.016Z,0
2017-01-20T06:48:45.712Z,0
2017-01-20T06:49:54.411Z,0
2017-01-20T06:51:03.131Z,0
2017-01-20T06:52:11.826Z,0
2017-01-20T06:53:20.514Z,0
2017-01-20T06:54:29.200Z,0
2017-01-20T06:55:37.892Z,0
2017-01-20T06:56:46.581Z,0
2017-01-20T06:57:55.275Z,0
2017-01-20T06:59:03.971Z,0
2017-01-20T07:00:13.088Z,0
2017-01-20T07:01:21.779Z,0
2017-01-20T07:02:30.471Z,0
2017-01-20T07:03:39.165Z,0
2017-01-20T07:04:47.871Z,0
2017-01-20T07:05:56.570Z,0
2017-01-20T07:07:05.658Z,0
2017-01-20T07:08:14.351Z,0
2017-01-20T07:09:23.044Z,0
2017-01-20T07:10:31.732Z,0
2017-01-20T07:11:40.422Z,0
2017-01-20T07:12:49.115Z,0
2017-01-20T07:13:57.807Z,0
2017-01-20T07:15:06.509Z,0
2017-01-20T07:16:15.200Z,0
2017-01-20T07:17:23.910Z,0
2017-01-20T07:18:32.602Z,0
2017-01-20T07:19:41.293Z,0
2017-01-20T07:20:49.991Z,0
2017-01-20T07:21:58.682Z,0
2017-01-20T07:23:07.373Z,0
2017-01-20T07:24:16.071Z,0
2017-01-20T07:25:24.762Z,0
2017-01-20T07:26:33.450Z,0
2017-01-20T07:27:42.146Z,0
2017-01-20T07:28:50.843Z,0
2017-01-20T07:29:59.535Z,0
2017-01-20T07:31:08.225Z,0
2017-01-20T07:32:16.914Z,0
2017-01-20T07:33:25.612Z,0
2017-01-20T07:34:34.302Z,0
2017-01-20T07:35:42.996Z,0
2017-01-20T07:36:51.689Z,0
2017-01-20T07:38:00.381Z,0
2017-01-20T07:39:09.075Z,0
2017-01-20T07:40:17.766Z,0
2017-01-20T07:41:26.462Z,0
2017-01-20T07:42:35.153Z,0
2017-01-20T07:43:43.841Z,0
2017-01-20T07:44:52.565Z,0
2017-01-20T07:46:01.257Z,0
2017-01-20T07:47:09.949Z,0
2017-01-20T07:48:18.645Z,0
2017-01-20T07:49:27.360Z,5
2017-01-20T07:50:36.052Z,5
2017-01-20T07:51:44.740Z,5
2017-01-20T07:52:53.431Z,5
2017-01-20T07:54:02.127Z,5
2017-01-20T07:55:10.820Z,5
2017-01-20T07:56:19.514Z,5
2017-01-20T07:57:28.204Z,5
2017-01-20T07:58:36.891Z,5
2017-01-20T07:59:45.587Z,5
2017-01-20T08:00:54.278Z,5
2017-01-20T08:02:02.974Z,10
2017-01-20T08:03:11.663Z,10
2017-01-20T08:04:20.360Z,10
2017-01-20T08:05:29.053Z,10
2017-01-20T08:06:37.744Z,10
2017-01-20T08:07:46.437Z,10
2017-01-20T08:08:55.133Z,10
2017-01-20T08:10:03.830Z,10
2017-01-20T08:11:12.524Z,15
2017-01-20T08:12:21.217Z,15
2017-01-20T08:13:29.923Z,15
2017-01-20T08:14:38.640Z,15
2017-01-20T08:15:47.333Z,15
2017-01-20T08:16:56.443Z,20
2017-01-20T08:18:05.163Z,20
2017-01-20T08:19:13.851Z,20
2017-01-20T08:20:22.546Z,20
2017-01-20T08:21:31.242Z,20
2017-01-20T08:22:39.931Z,25
2017-01-20T08:23:48.621Z,25
2017-01-20T08:24:57.316Z,25
2017-01-20T08:26:06.006Z,25
2017-01-20T08:27:14.703Z,25
2017-01-20T08:28:23.400Z,30
2017-01-20T08:29:32.087Z,30
2017-01-20T08:30:40.780Z,30
2017-01-20T08:31:49.476Z,30
2017-01-20T08:32:58.196Z,35
2017-01-20T08:34:06.897Z,35
2017-01-20T08:35:15.587Z,35
2017-01-20T08:36:24.321Z,35
2017-01-20T08:37:33.019Z,35
2017-01-20T08:38:41.713Z,40
2017-01-20T08:39:50.406Z,40
2017-01-20T08:40:59.097Z,40
2017-01-20T08:42:07.790Z,40
2017-01-20T08:43:16.484Z,45
2017-01-20T08:44:25.183Z,45
2017-01-20T08:45:33.874Z,45
2017-01-20T08:46:42.575Z,45
2017-01-20T08:47:51.273Z,50
2017-01-20T08:48:59.973Z,50
2017-01-20T08:50:08.665Z,50
2017-01-20T08:51:17.360Z,50
2017-01-20T08:52:26.059Z,55
2017-01-20T08:53:34.748Z,55
2017-01-20T08:54:43.446Z,55
2017-01-20T08:55:52.136Z,55
2017-01-20T08:57:00.828Z,55
2017-01-20T08:58:09.924Z,60
2017-01-20T08:59:18.620Z,60
2017-01-20T09:00:27.330Z,60
2017-01-20T09:01:36.024Z,65
2017-01-20T09:02:44.756Z,65
2017-01-20T09:03:53.452Z,65
2017-01-20T09:05:02.150Z,65
2017-01-20T09:06:10.847Z,70
2017-01-20T09:07:19.543Z,70
2017-01-20T09:08:28.228Z,70
2017-01-20T09:09:36.918Z,70
2017-01-20T09:10:45.606Z,70
2017-01-20T09:11:54.298Z,70
2017-01-20T09:13:02.995Z,70
2017-01-20T09:14:11.683Z,70
2017-01-20T09:15:20.371Z,75
2017-01-20T09:16:29.065Z,75
2017-01-20T09:17:37.760Z,75
2017-01-20T09:18:46.452Z,75
2017-01-20T09:19:55.145Z,75
2017-01-20T09:21:03.844Z,75
2017-01-20T09:22:12.544Z,75
2017-01-20T09:23:21.229Z,75
2017-01-20T09:24:29.921Z,80
2017-01-20T09:25:38.610Z,80
2017-01-20T09:26:47.303Z,80
2017-01-20T09:27:56.002Z,80
2017-01-20T09:29:04.702Z,80
2017-01-20T09:30:13.389Z,80
2017-01-20T09:31:22.084Z,80
2017-01-20T09:32:30.778Z,80
2017-01-20T09:33:39.865Z,80
2017-01-20T09:34:48.564Z,80
2017-01-20T09:35:57.259Z,80
2017-01-20T09:37:05.952Z,80
2017-01-20T09:38:14.651Z,80
2017-01-20T09:39:23.355Z,80
2017-01-20T09:40:32.050Z,80
2017-01-20T09:41:40.743Z,80
2017-01-20T09:42:49.441Z,80
2017-01-20T09:43:58.132Z,80
2017-01-20T09:45:06.819Z,80
2017-01-20T09:46:15.518Z,80
2017-01-20T09:47:24.235Z,80
2017-01-20T09:48:32.929Z,80
2017-01-20T09:49:41.624Z,80
2017-01-20T09:50:50.323Z,80
2017-01-20T09:51:59.019Z,80
2017-01-20T09:53:07.715Z,80
2017-01-20T09:54:16.409Z,80
2017-01-20T09:55:25.101Z,80
2017-01-20T09:56:33.796Z,80
2017-01-20T09:57:42.494Z,80
2017-01-20T09:58:51.189Z,80
2017-01-20T09:59:59.886Z,80
2017-01-20T10:01:08.583Z,80
2017-01-20T10:02:17.278Z,80
2017-01-20T10:03:25.970Z,80
2017-01-20T10:04:34.659Z,80
2017-01-20T10:05:43.385Z,80
2017-01-20T10:06:52.093Z,85
2017-01-20T10:08:00.791Z,85
2017-01-20T10:09:09.485Z,85
2017-01-20T10:10:18.181Z,85
2017-01-20T10:11:26.872Z,85
2017-01-20T10:12:35.563Z,90
2017-01-20T10:13:44.663Z,90
2017-01-20T10:14:53.353Z,90
2017-01-20T10:16:02.045Z,90
2017-01-20T10:17:11.141Z,90
2017-01-20T10:18:19.833Z,90
2017-01-20T10:19:28.531Z,90
2017-01-20T10:20:37.222Z,90
2017-01-20T10:21:45.919Z,90
2017-01-20T10:22:54.613Z,90
2017-01-20T10:24:03.310Z,90
2017-01-20T10:25:12.014Z,95
2017-01-20T10:26:20.725Z,95
2017-01-20T10:27:29.426Z,95
2017-01-20T10:28:38.133Z,95
2017-01-20T10:29:46.822Z,95
2017-01-20T10:30:55.516Z,100
2017-01-20T10:32:04.208Z,100
2017-01-20T10:33:12.906Z,100
2017-01-20T10:34:21.604Z,105
2017-01-20T10:35:30.300Z,105
2017-01-20T10:36:38.992Z,105
2017-01-20T10:37:47.686Z,110
2017-01-20T10:38:56.379Z,110
2017-01-20T10:40:05.074Z,110
2017-01-20T10:41:13.776Z,115
2017-01-20T10:42:22.478Z,115
2017-01-20T10:43:31.169Z,120
2017-01-20T10:44:39.891Z,120
2017-01-20T10:45:48.586Z,125
2017-01-20T10:46:57.285Z,130
2017-01-20T10:48:05.982Z,130
2017-01-20T10:49:14.680Z,130
2017-01-20T10:50:23.377Z,145
2017-01-20T10:51:32.075Z,200
2017-01-20T10:52:40.768Z,245
2017-01-20T10:53:49.465Z,245
2017-01-20T10:54:58.161Z,235
2017-01-20T10:56:06.860Z,230
2017-01-20T10:57:15.555Z,225
2017-01-20T10:58:24.255Z,220
2017-01-20T10:59:32.971Z,210
2017-01-20T11:00:41.668Z,215
2017-01-20T11:01:50.361Z,210
2017-01-20T11:02:59.097Z,215
2017-01-20T11:04:07.797Z,215
2017-01-20T11:05:16.487Z,215
2017-01-20T11:06:25.186Z,220
2017-01-20T11:07:33.887Z,225
2017-01-20T11:08:42.979Z,235
2017-01-20T11:09:51.677Z,240
2017-01-20T11:11:00.365Z,245
2017-01-20T11:12:09.056Z,250
2017-01-20T11:13:17.758Z,265
2017-01-20T11:14:26.454Z,270
2017-01-20T11:15:35.163Z,275
2017-01-20T11:16:43.868Z,280
2017-01-20T11:17:52.570Z,285
2017-01-20T11:19:01.269Z,295
2017-01-20T11:20:09.983Z,300
2017-01-20T11:21:18.678Z,305
2017-01-20T11:22:27.400Z,305
2017-01-20T11:23:36.094Z,305
2017-01-20T11:24:44.797Z,310
2017-01-20T11:25:53.500Z,315
2017-01-20T11:27:02.195Z,320
2017-01-20T11:28:10.897Z,320
2017-01-20T11:29:19.593Z,315
2017-01-20T11:30:28.293Z,325
2017-01-20T11:31:37.002Z,325
2017-01-20T11:32:45.704Z,330
2017-01-20T11:33:54.410Z,330
2017-01-20T11:35:03.106Z,330
2017-01-20T11:36:11.803Z,330
2017-01-20T11:37:20.501Z,335
2017-01-20T11:38:29.202Z,335
2017-01-20T11:39:37.909Z,335
2017-01-20T11:40:47.064Z,335
2017-01-20T11:41:56.167Z,335
2017-01-20T11:43:04.871Z,340
2017-01-20T11:44:13.573Z,340
2017-01-20T11:45:22.276Z,340
2017-01-20T11:46:30.977Z,340
2017-01-20T11:47:39.678Z,340
2017-01-20T11:48:48.380Z,345
2017-01-20T11:49:57.128Z,350
2017-01-20T11:51:05.834Z,355
2017-01-20T11:52:14.546Z,350
2017-01-20T11:53:23.256Z,350
2017-01-20T11:54:31.960Z,350
2017-01-20T11:55:40.708Z,350
2017-01-20T11:56:49.410Z,350
2017-01-20T11:57:58.109Z,355
2017-01-20T11:59:06.813Z,355
2017-01-20T12:00:15.514Z,355
2017-01-20T12:01:24.214Z,355
2017-01-20T12:02:32.914Z,360
2017-01-20T12:03:41.614Z,360
2017-01-20T12:04:50.321Z,365
2017-01-20T12:05:59.025Z,365
2017-01-20T12:07:07.728Z,365
2017-01-20T12:08:16.433Z,365
2017-01-20T12:09:25.135Z,365
2017-01-20T12:10:33.839Z,365
2017-01-20T12:11:42.607Z,370
2017-01-20T12:12:51.310Z,370
2017-01-20T12:14:00.014Z,375
2017-01-20T12:15:08.717Z,380
2017-01-20T12:16:17.453Z,385
2017-01-20T12:17:26.153Z,385
2017-01-20T12:18:34.854Z,390
2017-01-20T12:19:43.559Z,390
2017-01-20T12:20:52.269Z,390
2017-01-20T12:22:01.001Z,395
2017-01-20T12:23:09.699Z,400
2017-01-20T12:24:18.427Z,410
2017-01-20T12:25:27.134Z,410
2017-01-20T12:26:35.833Z,420
2017-01-20T12:27:44.530Z,420
2017-01-20T12:28:53.233Z,425
2017-01-20T12:30:01.936Z,430
2017-01-20T12:31:10.648Z,435
2017-01-20T12:32:19.361Z,440
2017-01-20T12:33:28.086Z,445
2017-01-20T12:34:36.785Z,460
2017-01-20T12:35:45.491Z,470
2017-01-20T12:36:54.194Z,485
2017-01-20T12:38:02.903Z,495
2017-01-20T12:39:11.628Z,500
2017-01-20T12:40:20.335Z,510
2017-01-20T12:41:29.039Z,535
2017-01-20T12:42:37.746Z,545
2017-01-20T12:43:46.457Z,540
2017-01-20T12:44:55.157Z,545
2017-01-20T12:46:03.860Z,555
2017-01-20T12:47:12.570Z,595
2017-01-20T12:48:21.274Z,620
2017-01-20T12:49:29.977Z,625
2017-01-20T12:50:38.687Z,625
2017-01-20T12:51:47.415Z,630
2017-01-20T12:52:56.120Z,645
2017-01-20T12:54:04.865Z,650
2017-01-20T12:55:13.574Z,670
2017-01-20T12:56:22.290Z,720
2017-01-20T12:57:30.997Z,895
2017-01-20T12:58:39.703Z,985
2017-01-20T12:59:48.803Z,890
2017-01-20T13:00:57.512Z,810
2017-01-20T13:02:06.225Z,785
2017-01-20T13:03:14.937Z,760
2017-01-20T13:04:23.646Z,730
2017-01-20T13:05:32.349Z,725
2017-01-20T13:06:41.061Z,710
2017-01-20T13:07:49.768Z,685
2017-01-20T13:08:58.503Z,680
2017-01-20T13:10:07.208Z,665
2017-01-20T13:11:15.910Z,650
2017-01-20T13:12:24.617Z,650
2017-01-20T13:13:33.342Z,650
2017-01-20T13:14:42.049Z,650
2017-01-20T13:15:50.757Z,645
2017-01-20T13:16:59.460Z,635
2017-01-20T13:18:08.169Z,625
2017-01-20T13:19:16.872Z,620
2017-01-20T13:20:25.580Z,600
2017-01-20T13:21:34.283Z,565
2017-01-20T13:22:42.995Z,505
2017-01-20T13:23:51.705Z,455
2017-01-20T13:25:00.407Z,390
2017-01-20T13:26:09.113Z,340
2017-01-20T13:27:17.821Z,305
2017-01-20T13:28:26.527Z,295
2017-01-20T13:29:35.230Z,315
2017-01-20T13:30:43.931Z,335
2017-01-20T13:31:52.640Z,330
2017-01-20T13:33:01.343Z,310
2017-01-20T13:34:10.049Z,275
2017-01-20T13:35:18.753Z,205
2017-01-20T13:36:27.464Z,175
2017-01-20T13:37:36.168Z,150
2017-01-20T13:38:44.872Z,130
2017-01-20T13:39:53.574Z,110
2017-01-20T13:41:02.283Z,110
2017-01-20T13:42:10.989Z,95
2017-01-20T13:43:19.696Z,90
2017-01-20T13:44:28.397Z,90
2017-01-20T13:45:37.099Z,85
2017-01-20T13:46:45.801Z,100
2017-01-20T13:47:54.507Z,95
2017-01-20T13:49:03.210Z,80
2017-01-20T13:50:11.913Z,85
2017-01-20T13:51:20.611Z,90
2017-01-20T13:52:29.311Z,95
2017-01-20T13:53:38.008Z,85
2017-01-20T13:54:47.129Z,80
2017-01-20T13:55:55.843Z,75
2017-01-20T13:57:04.553Z,70
2017-01-20T13:58:13.249Z,70
2017-01-20T13:59:21.948Z,70
2017-01-20T14:00:30.684Z,65
2017-01-20T14:01:39.383Z,70
2017-01-20T14:02:48.084Z,70
2017-01-20T14:03:56.789Z,65
2017-01-20T14:05:05.485Z,65
2017-01-20T14:06:14.182Z,70
2017-01-20T14:07:22.878Z,65
2017-01-20T14:08:31.578Z,60
2017-01-20T14:09:40.273Z,60
2017-01-20T14:10:48.966Z,60
2017-01-20T14:11:57.696Z,55
2017-01-20T14:13:06.396Z,55
2017-01-20T14:14:15.096Z,55
2017-01-20T14:15:23.790Z,55
2017-01-20T14:16:32.487Z,50
2017-01-20T14:17:41.186Z,50
2017-01-20T14:18:49.879Z,45
2017-01-20T14:19:58.573Z,45
2017-01-20T14:21:07.269Z,45
2017-01-20T14:22:15.972Z,45
2017-01-20T14:23:24.672Z,40
2017-01-20T14:24:33.369Z,40
2017-01-20T14:25:42.068Z,40
2017-01-20T14:26:50.873Z,40
2017-01-20T14:27:59.572Z,35
2017-01-20T14:29:08.291Z,35
2017-01-20T14:30:16.985Z,35
2017-01-20T14:31:25.709Z,35
2017-01-20T14:32:34.407Z,35
2017-01-20T14:33:43.126Z,30
2017-01-20T14:34:52.216Z,30
2017-01-20T14:36:00.917Z,30
2017-01-20T14:37:09.615Z,30
2017-01-20T14:38:18.312Z,30
2017-01-20T14:39:27.009Z,25
2017-01-20T14:40:35.709Z,25
2017-01-20T14:41:44.427Z,25
2017-01-20T14:42:53.127Z,25
2017-01-20T14:44:02.218Z,25
2017-01-20T14:45:10.912Z,20
2017-01-20T14:46:19.605Z,20
2017-01-20T14:47:28.300Z,20
2017-01-20T14:48:36.995Z,20
2017-01-20T14:49:45.692Z,20
2017-01-20T14:50:54.387Z,20
2017-01-20T14:52:03.079Z,15
2017-01-20T14:53:11.772Z,15
2017-01-20T14:54:20.476Z,15
2017-01-20T14:55:29.174Z,15
2017-01-20T14:56:37.868Z,15
2017-01-20T14:57:46.562Z,10
2017-01-20T14:58:55.261Z,10
2017-01-20T15:00:03.961Z,10
2017-01-20T15:01:12.657Z,10
2017-01-20T15:02:21.359Z,10
2017-01-20T15:03:30.055Z,10
2017-01-20T15:04:38.748Z,10
2017-01-20T15:05:47.440Z,5
2017-01-20T15:06:56.138Z,5
2017-01-20T15:08:04.830Z,5
2017-01-20T15:09:13.524Z,5
2017-01-20T15:10:22.219Z,5
2017-01-20T15:11:30.946Z,5
2017-01-20T15:12:39.662Z,5
2017-01-20T15:13:48.353Z,5
2017-01-20T15:14:57.116Z,5
2017-01-20T15:16:05.820Z,0
2017-01-20T15:17:14.536Z,0
2017-01-20T15:18:23.227Z,0
2017-01-20T15:19:31.923Z,0
2017-01-20T15:20:40.620Z,0
2017-01-20T15:21:49.313Z,0
2017-01-20T15:22:58.010Z,0
2017-01-20T15:24:06.705Z,0
2017-01-20T15:25:15.399Z,0
2017-01-20T15:26:24.091Z,0
2017-01-20T15:27:32.788Z,0
2017-01-20T15:28:41.502Z,0
2017-01-20T15:29:50.195Z,0
2017-01-20T15:30:58.881Z,0
2017-01-20T15:32:07.570Z,0
2017-01-20T15:33:16.265Z,0
2017-01-20T15:34:24.951Z,0
2017-01-20T15:35:33.644Z,0
2017-01-20T15:36:42.350Z,0
2017-01-20T15:37:51.041Z,0
2017-01-20T15:38:59.738Z,0
2017-01-20T15:40:08.436Z,0
2017-01-20T15:41:17.125Z,0
2017-01-20T15:42:25.819Z,0
2017-01-20T15:43:34.512Z,0
2017-01-20T15:44:43.632Z,0
2017-01-20T15:45:52.335Z,0
2017-01-20T15:47:01.028Z,0
2017-01-20T15:48:09.719Z,0
2017-01-20T15:49:18.409Z,0
2017-01-20T15:50:27.101Z,0
2017-01-20T15:51:35.797Z,0
2017-01-20T15:52:44.485Z,0
2017-01-20T15:53:53.196Z,0
2017-01-20T15:55:01.886Z,0
2017-01-20T15:56:10.583Z,0
2017-01-20T15:57:19.278Z,0
2017-01-20T15:58:27.969Z,0
2017-01-20T15:59:36.663Z,0
2017-01-20T16:00:45.358Z,0
2017-01-20T16:01:54.054Z,0
2017-01-20T16:03:02.750Z,0
2017-01-20T16:04:11.459Z,0
2017-01-20T16:05:20.150Z,0
2017-01-20T16:06:28.846Z,0
2017-01-20T16:07:37.538Z,0
2017-01-20T16:08:46.235Z,0
2017-01-20T16:09:54.933Z,0
2017-01-20T16:11:03.622Z,0
2017-01-20T16:12:12.325Z,0
2017-01-20T16:13:21.019Z,0
2017-01-20T16:14:29.720Z,0
2017-01-20T16:15:38.418Z,0
2017-01-20T16:16:47.111Z,0
2017-01-20T16:17:55.813Z,0
2017-01-20T16:19:04.509Z,0
2017-01-20T16:20:13.205Z,0
2017-01-20T16:21:21.901Z,0
2017-01-20T16:22:30.604Z,0
2017-01-20T16:23:39.298Z,0
2017-01-20T16:24:47.990Z,0
2017-01-20T16:25:56.684Z,0
2017-01-20T16:27:05.382Z,0
2017-01-20T16:28:14.082Z,0
2017-01-20T16:29:22.777Z,0
2017-01-20T16:30:31.472Z,0
2017-01-20T16:31:40.164Z,0
2017-01-20T16:32:48.853Z,0
2017-01-20T16:33:57.550Z,0